sensor_id;sensor_type;location;lat;lon;timestamp;pressure;altitude;pressure_sealevel;temperature;humidity
967;BME280;56108;48.730;9.304;2023-08-08T00:51:47;97701.69;;;11.78;100.00
967;BME280;56108;48.730;9.304;2023-08-08T01:01:59;97689.34;;;11.77;100.00
967;BME280;56108;48.730;9.304;2023-08-08T01:05:47;97683.47;;;11.72;100.00
967;BME280;56108;48.730;9.304;2023-08-08T01:19:45;97687.13;;;11.58;100.00
967;BME280;56108;48.730;9.304;2023-08-08T01:26:46;97683.22;;;11.51;100.00
967;BME280;56108;48.730;9.304;2023-08-08T01:34:18;97672.88;;;11.59;100.00
967;BME280;56108;48.730;9.304;2023-08-08T02:05:07;97651.28;;;11.38;100.00
967;BME280;56108;48.730;9.304;2023-08-08T02:08:15;97651.25;;;11.51;100.00
967;BME280;56108;48.730;9.304;2023-08-08T02:11:36;97643.13;;;11.53;100.00
967;BME280;56108;48.730;9.304;2023-08-08T02:15:02;97644.53;;;11.45;100.00
967;BME280;56108;48.730;9.304;2023-08-08T02:18:16;97639.53;;;11.41;100.00
967;BME280;56108;48.730;9.304;2023-08-08T02:48:38;97640.06;;;11.46;100.00
967;BME280;56108;48.730;9.304;2023-08-08T02:54:53;97646.47;;;11.43;100.00
967;BME280;56108;48.730;9.304;2023-08-08T03:04:41;97631.94;;;11.47;100.00
967;BME280;56108;48.730;9.304;2023-08-08T03:10:42;97640.47;;;11.53;100.00
967;BME280;56108;48.730;9.304;2023-08-08T03:13:59;97627.69;;;11.45;100.00
967;BME280;56108;48.730;9.304;2023-08-08T03:16:59;97634.16;;;11.54;100.00
967;BME280;56108;48.730;9.304;2023-08-08T03:27:16;97627.75;;;11.19;100.00
967;BME280;56108;48.730;9.304;2023-08-08T03:30:02;97624.13;;;11.20;100.00
967;BME280;56108;48.730;9.304;2023-08-08T03:32:58;97622.97;;;11.24;100.00
967;BME280;56108;48.730;9.304;2023-08-08T03:36:06;97627.75;;;11.19;100.00
967;BME280;56108;48.730;9.304;2023-08-08T03:38:57;97629.47;;;11.20;100.00
967;BME280;56108;48.730;9.304;2023-08-08T03:42:01;97630.44;;;11.19;100.00
967;BME280;56108;48.730;9.304;2023-08-08T03:57:40;97636.16;;;11.39;100.00
967;BME280;56108;48.730;9.304;2023-08-08T04:01:22;97632.28;;;11.43;100.00
967;BME280;56108;48.730;9.304;2023-08-08T04:11:31;97637.81;;;11.76;100.00
967;BME280;56108;48.730;9.304;2023-08-08T04:15:22;97641.66;;;11.85;100.00
967;BME280;56108;48.730;9.304;2023-08-08T04:18:33;97650.19;;;11.90;100.00
967;BME280;56108;48.730;9.304;2023-08-08T04:21:44;97643.53;;;11.96;100.00
967;BME280;56108;48.730;9.304;2023-08-08T04:25:07;97652.69;;;12.16;100.00
967;BME280;56108;48.730;9.304;2023-08-08T04:54:49;97669.28;;;12.32;100.00
967;BME280;56108;48.730;9.304;2023-08-08T04:57:40;97672.25;;;12.51;100.00
967;BME280;56108;48.730;9.304;2023-08-08T05:00:25;97670.44;;;12.63;100.00
967;BME280;56108;48.730;9.304;2023-08-08T05:02:47;97685.22;;;12.91;100.00
967;BME280;56108;48.730;9.304;2023-08-08T05:05:25;97685.09;;;13.04;100.00
967;BME280;56108;48.730;9.304;2023-08-08T05:08:27;97680.84;;;12.90;100.00
967;BME280;56108;48.730;9.304;2023-08-08T05:11:07;97687.53;;;12.85;100.00
967;BME280;56108;48.730;9.304;2023-08-08T05:13:26;97680.59;;;13.04;100.00
967;BME280;56108;48.730;9.304;2023-08-08T05:15:34;97670.53;;;13.08;100.00
967;BME280;56108;48.730;9.304;2023-08-08T05:17:42;97668.47;;;13.12;100.00
967;BME280;56108;48.730;9.304;2023-08-08T05:19:50;97668.63;;;13.32;100.00
967;BME280;56108;48.730;9.304;2023-08-08T05:21:59;97670.66;;;13.74;100.00
967;BME280;56108;48.730;9.304;2023-08-08T05:24:07;97677.94;;;14.26;100.00
967;BME280;56108;48.730;9.304;2023-08-08T05:26:19;97666.25;;;14.80;100.00
967;BME280;56108;48.730;9.304;2023-08-08T05:28:29;97672.72;;;16.00;100.00
967;BME280;56108;48.730;9.304;2023-08-08T05:30:37;97668.22;;;16.20;100.00
967;BME280;56108;48.730;9.304;2023-08-08T05:32:45;97672.97;;;17.23;95.30
967;BME280;56108;48.730;9.304;2023-08-08T05:34:54;97676.59;;;17.69;87.48
967;BME280;56108;48.730;9.304;2023-08-08T05:37:05;97676.31;;;17.99;85.61
967;BME280;56108;48.730;9.304;2023-08-08T05:39:21;97674.69;;;17.52;88.69
967;BME280;56108;48.730;9.304;2023-08-08T05:41:33;97667.25;;;17.36;88.26
967;BME280;56108;48.730;9.304;2023-08-08T05:43:41;97682.56;;;17.63;85.95
967;BME280;56108;48.730;9.304;2023-08-08T05:45:50;97678.13;;;17.44;88.23
967;BME280;56108;48.730;9.304;2023-08-08T05:47:58;97692.03;;;18.04;83.87
967;BME280;56108;48.730;9.304;2023-08-08T05:50:14;97703.19;;;18.90;77.53
967;BME280;56108;48.730;9.304;2023-08-08T05:52:22;97721.38;;;19.92;69.91
967;BME280;56108;48.730;9.304;2023-08-08T05:54:30;97744.63;;;20.70;61.79
967;BME280;56108;48.730;9.304;2023-08-08T05:56:42;97751.81;;;21.92;58.04
967;BME280;56108;48.730;9.304;2023-08-08T05:58:52;97779.50;;;24.10;50.76
967;BME280;56108;48.730;9.304;2023-08-08T06:01:01;97789.53;;;24.90;47.23
967;BME280;56108;48.730;9.304;2023-08-08T06:03:11;97818.19;;;25.86;42.94
967;BME280;56108;48.730;9.304;2023-08-08T06:05:25;97817.84;;;27.20;40.27
967;BME280;56108;48.730;9.304;2023-08-08T06:07:35;97811.91;;;26.20;40.91
967;BME280;56108;48.730;9.304;2023-08-08T06:09:44;97812.22;;;27.35;39.30
967;BME280;56108;48.730;9.304;2023-08-08T06:11:55;97824.03;;;28.08;37.26
967;BME280;56108;48.730;9.304;2023-08-08T06:14:05;97825.03;;;28.53;35.70
967;BME280;56108;48.730;9.304;2023-08-08T06:16:19;97830.50;;;28.53;35.56
967;BME280;56108;48.730;9.304;2023-08-08T06:18:30;97829.22;;;28.63;35.10
967;BME280;56108;48.730;9.304;2023-08-08T06:20:39;97820.50;;;28.79;35.18
967;BME280;56108;48.730;9.304;2023-08-08T06:22:47;97816.47;;;28.81;35.43
967;BME280;56108;48.730;9.304;2023-08-08T06:24:57;97818.47;;;28.54;35.64
967;BME280;56108;48.730;9.304;2023-08-08T06:27:08;97811.59;;;29.35;34.50
967;BME280;56108;48.730;9.304;2023-08-08T06:29:19;97826.91;;;30.31;31.86
967;BME280;56108;48.730;9.304;2023-08-08T06:31:29;97813.56;;;29.59;33.65
967;BME280;56108;48.730;9.304;2023-08-08T06:33:37;97809.53;;;30.12;33.73
967;BME280;56108;48.730;9.304;2023-08-08T06:35:47;97812.94;;;29.57;33.46
967;BME280;56108;48.730;9.304;2023-08-08T06:37:55;97805.91;;;30.18;33.07
967;BME280;56108;48.730;9.304;2023-08-08T06:40:08;97811.25;;;30.31;33.00
967;BME280;56108;48.730;9.304;2023-08-08T06:42:24;97779.47;;;29.74;33.52
967;BME280;56108;48.730;9.304;2023-08-08T06:44:43;97779.06;;;29.95;32.62
967;BME280;56108;48.730;9.304;2023-08-08T06:46:53;97776.00;;;29.28;33.38
967;BME280;56108;48.730;9.304;2023-08-08T06:49:07;97780.63;;;29.84;32.58
967;BME280;56108;48.730;9.304;2023-08-08T06:51:25;97730.69;;;28.49;35.05
967;BME280;56108;48.730;9.304;2023-08-08T06:53:36;97727.00;;;26.98;37.37
967;BME280;56108;48.730;9.304;2023-08-08T06:55:50;97726.16;;;26.97;38.08
967;BME280;56108;48.730;9.304;2023-08-08T06:58:03;97715.63;;;26.74;38.13
967;BME280;56108;48.730;9.304;2023-08-08T07:00:14;97725.13;;;28.04;36.29
967;BME280;56108;48.730;9.304;2023-08-08T07:02:25;97727.69;;;28.57;36.06
967;BME280;56108;48.730;9.304;2023-08-08T07:04:33;97723.94;;;28.52;36.20
967;BME280;56108;48.730;9.304;2023-08-08T07:06:46;97716.03;;;29.14;35.61
967;BME280;56108;48.730;9.304;2023-08-08T07:09:00;97720.50;;;29.01;34.58
967;BME280;56108;48.730;9.304;2023-08-08T07:11:10;97721.84;;;28.85;34.47
967;BME280;56108;48.730;9.304;2023-08-08T07:13:27;97717.00;;;28.88;34.38
967;BME280;56108;48.730;9.304;2023-08-08T07:15:35;97701.75;;;28.60;34.86
967;BME280;56108;48.730;9.304;2023-08-08T07:17:43;97708.72;;;29.01;33.78
967;BME280;56108;48.730;9.304;2023-08-08T07:19:57;97708.06;;;29.05;33.69
967;BME280;56108;48.730;9.304;2023-08-08T07:22:07;97705.97;;;29.57;33.94
967;BME280;56108;48.730;9.304;2023-08-08T07:24:16;97710.28;;;28.83;34.74
967;BME280;56108;48.730;9.304;2023-08-08T07:26:43;97706.16;;;30.24;32.69
967;BME280;56108;48.730;9.304;2023-08-08T07:29:17;97715.28;;;29.56;34.19
967;BME280;56108;48.730;9.304;2023-08-08T07:31:36;97705.16;;;29.75;33.12
967;BME280;56108;48.730;9.304;2023-08-08T07:33:47;97706.75;;;29.64;32.55
967;BME280;56108;48.730;9.304;2023-08-08T07:36:03;97696.47;;;30.22;31.64
967;BME280;56108;48.730;9.304;2023-08-08T07:38:19;97702.25;;;29.70;32.92
967;BME280;56108;48.730;9.304;2023-08-08T07:40:29;97703.47;;;29.56;33.81
967;BME280;56108;48.730;9.304;2023-08-08T07:42:48;97707.63;;;29.83;33.05
967;BME280;56108;48.730;9.304;2023-08-08T07:45:00;97691.75;;;30.77;32.46
967;BME280;56108;48.730;9.304;2023-08-08T07:47:09;97696.31;;;30.17;32.16
967;BME280;56108;48.730;9.304;2023-08-08T07:49:25;97695.06;;;29.94;32.96
967;BME280;56108;48.730;9.304;2023-08-08T07:54:25;97690.91;;;27.62;36.39
967;BME280;56108;48.730;9.304;2023-08-08T07:57:23;97681.22;;;27.20;37.87
967;BME280;56108;48.730;9.304;2023-08-08T07:59:45;97684.19;;;27.31;37.86
967;BME280;56108;48.730;9.304;2023-08-08T08:05:27;97665.16;;;24.69;43.00
967;BME280;56108;48.730;9.304;2023-08-08T08:07:46;97663.13;;;24.20;43.95
967;BME280;56108;48.730;9.304;2023-08-08T08:09:55;97664.28;;;23.96;44.56
967;BME280;56108;48.730;9.304;2023-08-08T08:12:05;97657.63;;;23.39;44.95
967;BME280;56108;48.730;9.304;2023-08-08T08:14:19;97654.41;;;23.21;46.66
967;BME280;56108;48.730;9.304;2023-08-08T08:16:29;97656.06;;;23.07;46.77
967;BME280;56108;48.730;9.304;2023-08-08T08:18:41;97656.63;;;22.80;47.20
967;BME280;56108;48.730;9.304;2023-08-08T08:20:57;97657.34;;;22.74;47.38
967;BME280;56108;48.730;9.304;2023-08-08T08:23:16;97654.84;;;22.72;47.25
967;BME280;56108;48.730;9.304;2023-08-08T08:25:26;97649.66;;;22.62;48.41
967;BME280;56108;48.730;9.304;2023-08-08T08:27:35;97656.50;;;22.27;49.48
967;BME280;56108;48.730;9.304;2023-08-08T08:29:43;97654.59;;;22.36;50.37
967;BME280;56108;48.730;9.304;2023-08-08T08:31:52;97648.34;;;22.27;51.70
967;BME280;56108;48.730;9.304;2023-08-08T08:34:00;97650.97;;;22.44;49.96
967;BME280;56108;48.730;9.304;2023-08-08T08:36:15;97646.69;;;22.26;49.87
967;BME280;56108;48.730;9.304;2023-08-08T08:38:23;97649.88;;;22.53;50.56
967;BME280;56108;48.730;9.304;2023-08-08T08:40:35;97652.13;;;22.72;47.87
967;BME280;56108;48.730;9.304;2023-08-08T08:42:45;97655.50;;;22.97;48.10
967;BME280;56108;48.730;9.304;2023-08-08T08:44:57;97651.22;;;22.57;48.45
967;BME280;56108;48.730;9.304;2023-08-08T08:47:09;97642.47;;;22.70;48.84
967;BME280;56108;48.730;9.304;2023-08-08T08:49:25;97639.94;;;22.91;49.13
967;BME280;56108;48.730;9.304;2023-08-08T08:51:37;97648.28;;;22.89;48.31
967;BME280;56108;48.730;9.304;2023-08-08T08:53:50;97644.34;;;22.69;47.45
967;BME280;56108;48.730;9.304;2023-08-08T08:55:58;97646.53;;;22.51;48.28
967;BME280;56108;48.730;9.304;2023-08-08T08:58:07;97647.78;;;22.40;49.31
967;BME280;56108;48.730;9.304;2023-08-08T09:00:16;97639.28;;;22.43;48.38
967;BME280;56108;48.730;9.304;2023-08-08T09:02:27;97635.78;;;22.34;49.03
967;BME280;56108;48.730;9.304;2023-08-08T09:04:44;97637.78;;;22.40;48.32
967;BME280;56108;48.730;9.304;2023-08-08T09:06:55;97641.31;;;22.64;48.78
967;BME280;56108;48.730;9.304;2023-08-08T09:09:04;97641.31;;;22.87;47.61
967;BME280;56108;48.730;9.304;2023-08-08T09:11:20;97629.72;;;23.46;46.50
967;BME280;56108;48.730;9.304;2023-08-08T09:13:35;97628.25;;;23.73;45.89
967;BME280;56108;48.730;9.304;2023-08-08T09:15:47;97635.97;;;24.05;44.91
967;BME280;56108;48.730;9.304;2023-08-08T09:17:55;97638.56;;;24.28;43.51
967;BME280;56108;48.730;9.304;2023-08-08T09:20:04;97632.91;;;23.93;43.13
967;BME280;56108;48.730;9.304;2023-08-08T09:22:19;97639.47;;;23.84;44.23
967;BME280;56108;48.730;9.304;2023-08-08T09:24:28;97655.56;;;24.94;42.47
967;BME280;56108;48.730;9.304;2023-08-08T09:26:36;97638.94;;;25.67;41.36
967;BME280;56108;48.730;9.304;2023-08-08T09:28:42;97644.34;;;25.60;40.21
967;BME280;56108;48.730;9.304;2023-08-08T09:30:50;97645.44;;;25.10;39.13
967;BME280;56108;48.730;9.304;2023-08-08T09:32:59;97637.31;;;24.31;42.11
967;BME280;56108;48.730;9.304;2023-08-08T09:35:08;97639.38;;;25.70;39.48
967;BME280;56108;48.730;9.304;2023-08-08T09:37:19;97639.41;;;26.12;38.12
967;BME280;56108;48.730;9.304;2023-08-08T09:39:27;97638.28;;;25.30;39.76
967;BME280;56108;48.730;9.304;2023-08-08T09:41:36;97634.91;;;24.57;41.35
967;BME280;56108;48.730;9.304;2023-08-08T09:43:47;97627.38;;;25.58;39.77
967;BME280;56108;48.730;9.304;2023-08-08T09:45:55;97626.31;;;26.62;38.02
967;BME280;56108;48.730;9.304;2023-08-08T09:48:05;97626.66;;;26.39;38.27
967;BME280;56108;48.730;9.304;2023-08-08T09:50:11;97629.91;;;26.82;37.70
967;BME280;56108;48.730;9.304;2023-08-08T09:52:22;97625.75;;;27.26;37.16
967;BME280;56108;48.730;9.304;2023-08-08T09:54:30;97626.38;;;26.95;36.71
967;BME280;56108;48.730;9.304;2023-08-08T09:56:40;97625.31;;;26.15;37.31
967;BME280;56108;48.730;9.304;2023-08-08T09:58:48;97615.53;;;25.44;38.70
967;BME280;56108;48.730;9.304;2023-08-08T10:00:56;97624.56;;;25.80;38.35
967;BME280;56108;48.730;9.304;2023-08-08T10:03:05;97621.94;;;26.87;36.07
967;BME280;56108;48.730;9.304;2023-08-08T10:05:14;97615.78;;;27.71;35.02
967;BME280;56108;48.730;9.304;2023-08-08T10:07:25;97617.50;;;27.59;36.82
967;BME280;56108;48.730;9.304;2023-08-08T10:09:33;97612.00;;;25.85;38.16
967;BME280;56108;48.730;9.304;2023-08-08T10:11:43;97609.13;;;26.68;38.55
967;BME280;56108;48.730;9.304;2023-08-08T10:13:53;97602.00;;;26.80;37.64
967;BME280;56108;48.730;9.304;2023-08-08T10:16:07;97603.94;;;26.18;38.12
967;BME280;56108;48.730;9.304;2023-08-08T10:18:16;97605.41;;;25.73;39.12
967;BME280;56108;48.730;9.304;2023-08-08T10:20:25;97607.63;;;26.52;38.10
967;BME280;56108;48.730;9.304;2023-08-08T10:22:36;97613.78;;;27.20;36.23
967;BME280;56108;48.730;9.304;2023-08-08T10:24:46;97605.25;;;26.36;38.32
967;BME280;56108;48.730;9.304;2023-08-08T10:26:57;97601.66;;;25.39;40.53
967;BME280;56108;48.730;9.304;2023-08-08T10:29:07;97607.03;;;26.70;37.33
967;BME280;56108;48.730;9.304;2023-08-08T10:31:20;97598.19;;;26.88;35.71
967;BME280;56108;48.730;9.304;2023-08-08T10:33:39;97603.22;;;27.04;35.96
967;BME280;56108;48.730;9.304;2023-08-08T10:35:56;97612.91;;;26.87;35.57
967;BME280;56108;48.730;9.304;2023-08-08T10:38:10;97611.53;;;26.29;36.28
967;BME280;56108;48.730;9.304;2023-08-08T10:40:20;97607.09;;;25.33;36.98
967;BME280;56108;48.730;9.304;2023-08-08T10:42:28;97612.28;;;24.57;39.69
967;BME280;56108;48.730;9.304;2023-08-08T10:44:40;97601.34;;;24.14;40.71
967;BME280;56108;48.730;9.304;2023-08-08T10:46:51;97602.97;;;24.44;40.99
967;BME280;56108;48.730;9.304;2023-08-08T10:49:05;97584.31;;;25.12;40.23
967;BME280;56108;48.730;9.304;2023-08-08T10:51:14;97592.78;;;24.53;39.73
967;BME280;56108;48.730;9.304;2023-08-08T10:53:26;97585.78;;;23.86;40.52
967;BME280;56108;48.730;9.304;2023-08-08T10:55:36;97591.16;;;23.65;41.29
967;BME280;56108;48.730;9.304;2023-08-08T10:57:53;97592.38;;;24.13;40.40
967;BME280;56108;48.730;9.304;2023-08-08T11:00:16;97593.63;;;25.03;40.78
967;BME280;56108;48.730;9.304;2023-08-08T11:02:25;97582.97;;;25.30;38.02
967;BME280;56108;48.730;9.304;2023-08-08T11:04:35;97586.13;;;25.33;39.11
967;BME280;56108;48.730;9.304;2023-08-08T11:06:44;97594.25;;;25.61;37.94
967;BME280;56108;48.730;9.304;2023-08-08T11:08:58;97598.31;;;26.40;37.47
967;BME280;56108;48.730;9.304;2023-08-08T11:11:08;97590.34;;;26.32;35.86
967;BME280;56108;48.730;9.304;2023-08-08T11:13:17;97591.03;;;25.86;35.28
967;BME280;56108;48.730;9.304;2023-08-08T11:15:27;97580.22;;;25.30;38.04
967;BME280;56108;48.730;9.304;2023-08-08T11:17:36;97579.47;;;25.42;36.93
967;BME280;56108;48.730;9.304;2023-08-08T11:19:45;97578.94;;;25.60;37.87
967;BME280;56108;48.730;9.304;2023-08-08T11:21:53;97575.84;;;25.70;38.39
967;BME280;56108;48.730;9.304;2023-08-08T11:24:06;97588.47;;;25.77;36.28
967;BME280;56108;48.730;9.304;2023-08-08T11:26:17;97592.88;;;25.79;37.21
967;BME280;56108;48.730;9.304;2023-08-08T11:28:26;97579.84;;;25.74;36.61
967;BME280;56108;48.730;9.304;2023-08-08T11:30:38;97586.41;;;25.80;35.96
967;BME280;56108;48.730;9.304;2023-08-08T11:32:47;97582.84;;;25.86;36.48
967;BME280;56108;48.730;9.304;2023-08-08T11:34:59;97576.56;;;25.85;36.01
967;BME280;56108;48.730;9.304;2023-08-08T11:37:09;97576.88;;;25.69;36.90
967;BME280;56108;48.730;9.304;2023-08-08T11:39:23;97573.28;;;24.99;37.04
967;BME280;56108;48.730;9.304;2023-08-08T11:41:32;97579.13;;;24.46;37.32
967;BME280;56108;48.730;9.304;2023-08-08T11:43:38;97580.81;;;24.97;37.88
967;BME280;56108;48.730;9.304;2023-08-08T11:45:48;97574.03;;;25.42;36.92
967;BME280;56108;48.730;9.304;2023-08-08T11:47:57;97566.09;;;25.13;36.63
967;BME280;56108;48.730;9.304;2023-08-08T11:50:08;97560.84;;;25.52;38.53
967;BME280;56108;48.730;9.304;2023-08-08T11:52:18;97564.97;;;24.79;36.04
967;BME280;56108;48.730;9.304;2023-08-08T11:54:30;97563.59;;;24.40;37.22
967;BME280;56108;48.730;9.304;2023-08-08T11:56:39;97564.69;;;24.95;36.36
967;BME280;56108;48.730;9.304;2023-08-08T11:58:49;97557.38;;;24.96;36.95
967;BME280;56108;48.730;9.304;2023-08-08T12:00:58;97577.09;;;24.77;36.22
967;BME280;56108;48.730;9.304;2023-08-08T12:03:04;97562.13;;;24.02;36.93
967;BME280;56108;48.730;9.304;2023-08-08T12:05:15;97555.56;;;23.96;36.05
967;BME280;56108;48.730;9.304;2023-08-08T12:07:26;97565.41;;;23.97;36.98
967;BME280;56108;48.730;9.304;2023-08-08T12:09:38;97576.41;;;24.10;36.91
967;BME280;56108;48.730;9.304;2023-08-08T12:11:47;97561.88;;;24.18;38.73
967;BME280;56108;48.730;9.304;2023-08-08T12:13:59;97565.78;;;24.52;37.90
967;BME280;56108;48.730;9.304;2023-08-08T12:16:09;97567.66;;;25.01;36.10
967;BME280;56108;48.730;9.304;2023-08-08T12:18:22;97553.16;;;25.21;36.74
967;BME280;56108;48.730;9.304;2023-08-08T12:20:31;97556.63;;;25.09;34.97
967;BME280;56108;48.730;9.304;2023-08-08T12:22:39;97553.38;;;24.98;35.21
967;BME280;56108;48.730;9.304;2023-08-08T12:24:50;97544.69;;;25.44;37.12
967;BME280;56108;48.730;9.304;2023-08-08T12:26:59;97551.34;;;25.35;36.30
967;BME280;56108;48.730;9.304;2023-08-08T12:29:07;97553.28;;;25.07;34.77
967;BME280;56108;48.730;9.304;2023-08-08T12:31:15;97555.03;;;24.93;35.92
967;BME280;56108;48.730;9.304;2023-08-08T12:33:24;97535.47;;;24.83;36.33
967;BME280;56108;48.730;9.304;2023-08-08T12:37:38;97543.44;;;24.56;36.71
967;BME280;56108;48.730;9.304;2023-08-08T12:39:46;97550.94;;;24.33;36.61
967;BME280;56108;48.730;9.304;2023-08-08T12:41:57;97541.22;;;24.66;36.91
967;BME280;56108;48.730;9.304;2023-08-08T12:44:06;97546.03;;;24.64;36.07
967;BME280;56108;48.730;9.304;2023-08-08T12:46:15;97544.47;;;24.55;36.40
967;BME280;56108;48.730;9.304;2023-08-08T12:48:23;97550.13;;;24.54;36.71
967;BME280;56108;48.730;9.304;2023-08-08T12:50:31;97538.59;;;24.80;37.47
967;BME280;56108;48.730;9.304;2023-08-08T12:52:40;97543.50;;;24.41;37.88
967;BME280;56108;48.730;9.304;2023-08-08T12:54:48;97545.88;;;24.30;38.07
967;BME280;56108;48.730;9.304;2023-08-08T12:57:00;97532.06;;;24.31;37.56
967;BME280;56108;48.730;9.304;2023-08-08T12:59:08;97531.78;;;24.41;39.63
967;BME280;56108;48.730;9.304;2023-08-08T13:01:17;97530.97;;;24.26;37.89
967;BME280;56108;48.730;9.304;2023-08-08T13:03:25;97529.56;;;24.51;37.90
967;BME280;56108;48.730;9.304;2023-08-08T13:05:35;97528.06;;;25.05;39.91
967;BME280;56108;48.730;9.304;2023-08-08T13:07:43;97525.34;;;25.05;38.87
967;BME280;56108;48.730;9.304;2023-08-08T13:09:51;97518.44;;;25.02;37.81
967;BME280;56108;48.730;9.304;2023-08-08T13:12:02;97526.09;;;24.36;38.20
967;BME280;56108;48.730;9.304;2023-08-08T13:14:10;97518.09;;;24.34;39.19
967;BME280;56108;48.730;9.304;2023-08-08T13:16:19;97520.56;;;24.08;39.74
967;BME280;56108;48.730;9.304;2023-08-08T13:18:27;97521.72;;;23.99;39.35
967;BME280;56108;48.730;9.304;2023-08-08T13:20:38;97519.19;;;23.76;39.44
967;BME280;56108;48.730;9.304;2023-08-08T13:22:46;97513.41;;;23.49;40.88
967;BME280;56108;48.730;9.304;2023-08-08T13:24:54;97516.69;;;23.30;40.02
967;BME280;56108;48.730;9.304;2023-08-08T13:27:05;97515.09;;;22.91;41.98
967;BME280;56108;48.730;9.304;2023-08-08T13:29:13;97518.97;;;22.59;41.51
967;BME280;56108;48.730;9.304;2023-08-08T13:31:21;97515.63;;;22.34;41.22
967;BME280;56108;48.730;9.304;2023-08-08T13:33:30;97518.75;;;22.00;43.17
967;BME280;56108;48.730;9.304;2023-08-08T13:35:39;97530.00;;;21.88;43.77
967;BME280;56108;48.730;9.304;2023-08-08T13:37:47;97522.38;;;21.61;44.11
967;BME280;56108;48.730;9.304;2023-08-08T13:39:57;97525.38;;;21.35;44.69
967;BME280;56108;48.730;9.304;2023-08-08T13:42:09;97520.63;;;21.29;45.75
967;BME280;56108;48.730;9.304;2023-08-08T13:44:17;97521.34;;;21.31;44.72
967;BME280;56108;48.730;9.304;2023-08-08T13:46:25;97525.13;;;21.53;45.57
967;BME280;56108;48.730;9.304;2023-08-08T13:48:34;97526.81;;;22.08;45.60
967;BME280;56108;48.730;9.304;2023-08-08T13:50:42;97513.91;;;22.56;44.11
967;BME280;56108;48.730;9.304;2023-08-08T13:52:50;97516.50;;;23.02;44.05
967;BME280;56108;48.730;9.304;2023-08-08T13:55:01;97522.78;;;23.32;42.88
967;BME280;56108;48.730;9.304;2023-08-08T13:57:13;97522.69;;;23.40;41.69
967;BME280;56108;48.730;9.304;2023-08-08T13:59:21;97516.47;;;23.46;42.67
967;BME280;56108;48.730;9.304;2023-08-08T14:01:31;97518.00;;;23.34;42.89
967;BME280;56108;48.730;9.304;2023-08-08T14:03:39;97513.91;;;22.94;42.04
967;BME280;56108;48.730;9.304;2023-08-08T14:05:47;97517.09;;;22.59;43.74
967;BME280;56108;48.730;9.304;2023-08-08T14:07:57;97508.00;;;22.52;43.66
967;BME280;56108;48.730;9.304;2023-08-08T14:10:07;97507.38;;;22.65;43.36
967;BME280;56108;48.730;9.304;2023-08-08T14:12:19;97511.47;;;23.13;41.80
967;BME280;56108;48.730;9.304;2023-08-08T14:14:29;97515.72;;;23.52;42.20
967;BME280;56108;48.730;9.304;2023-08-08T14:16:37;97511.41;;;23.73;40.91
967;BME280;56108;48.730;9.304;2023-08-08T14:18:45;97514.59;;;23.98;42.00
967;BME280;56108;48.730;9.304;2023-08-08T14:20:53;97502.16;;;24.31;41.92
967;BME280;56108;48.730;9.304;2023-08-08T14:23:00;97517.59;;;24.03;40.71
967;BME280;56108;48.730;9.304;2023-08-08T14:25:11;97505.56;;;24.12;40.95
967;BME280;56108;48.730;9.304;2023-08-08T14:27:23;97507.66;;;24.16;41.63
967;BME280;56108;48.730;9.304;2023-08-08T14:29:31;97511.03;;;23.97;40.43
967;BME280;56108;48.730;9.304;2023-08-08T14:31:40;97512.31;;;24.01;41.60
967;BME280;56108;48.730;9.304;2023-08-08T14:34:04;97508.22;;;23.54;42.84
967;BME280;56108;48.730;9.304;2023-08-08T14:36:12;97513.50;;;22.97;43.39
967;BME280;56108;48.730;9.304;2023-08-08T14:38:23;97514.84;;;22.63;43.89
967;BME280;56108;48.730;9.304;2023-08-08T14:40:32;97509.25;;;22.27;44.99
967;BME280;56108;48.730;9.304;2023-08-08T14:42:46;97515.66;;;22.11;44.31
967;BME280;56108;48.730;9.304;2023-08-08T14:44:56;97527.66;;;21.85;44.51
967;BME280;56108;48.730;9.304;2023-08-08T14:47:05;97523.28;;;21.76;45.35
967;BME280;56108;48.730;9.304;2023-08-08T14:49:14;97519.66;;;21.61;44.83
967;BME280;56108;48.730;9.304;2023-08-08T14:51:23;97520.44;;;21.47;45.52
967;BME280;56108;48.730;9.304;2023-08-08T14:53:31;97526.44;;;21.18;46.02
967;BME280;56108;48.730;9.304;2023-08-08T14:55:39;97525.94;;;21.14;46.39
967;BME280;56108;48.730;9.304;2023-08-08T14:57:50;97519.72;;;21.05;46.42
967;BME280;56108;48.730;9.304;2023-08-08T14:59:59;97522.94;;;21.01;45.47
967;BME280;56108;48.730;9.304;2023-08-08T15:02:08;97525.88;;;20.75;46.73
967;BME280;56108;48.730;9.304;2023-08-08T15:04:16;97524.53;;;20.79;46.90
967;BME280;56108;48.730;9.304;2023-08-08T15:06:22;97521.13;;;20.77;48.70
967;BME280;56108;48.730;9.304;2023-08-08T15:08:31;97509.59;;;20.99;48.57
967;BME280;56108;48.730;9.304;2023-08-08T15:10:39;97508.38;;;21.10;46.97
967;BME280;56108;48.730;9.304;2023-08-08T15:12:50;97514.72;;;21.33;48.28
967;BME280;56108;48.730;9.304;2023-08-08T15:14:59;97518.19;;;21.50;46.82
967;BME280;56108;48.730;9.304;2023-08-08T15:17:08;97522.94;;;21.56;47.25
967;BME280;56108;48.730;9.304;2023-08-08T15:19:16;97514.56;;;21.66;46.65
967;BME280;56108;48.730;9.304;2023-08-08T15:21:28;97520.44;;;21.78;46.06
967;BME280;56108;48.730;9.304;2023-08-08T15:23:36;97515.94;;;21.62;46.62
967;BME280;56108;48.730;9.304;2023-08-08T15:25:42;97530.34;;;21.62;45.98
967;BME280;56108;48.730;9.304;2023-08-08T15:27:53;97524.06;;;21.31;46.93
967;BME280;56108;48.730;9.304;2023-08-08T15:30:01;97523.34;;;21.29;47.25
967;BME280;56108;48.730;9.304;2023-08-08T15:32:09;97526.56;;;21.24;47.15
967;BME280;56108;48.730;9.304;2023-08-08T15:34:17;97528.63;;;21.22;47.31
967;BME280;56108;48.730;9.304;2023-08-08T15:36:26;97533.75;;;21.09;47.32
967;BME280;56108;48.730;9.304;2023-08-08T15:38:37;97524.97;;;21.07;47.76
967;BME280;56108;48.730;9.304;2023-08-08T15:40:47;97536.09;;;21.20;46.98
967;BME280;56108;48.730;9.304;2023-08-08T15:42:57;97516.31;;;21.82;48.83
967;BME280;56108;48.730;9.304;2023-08-08T15:45:07;97536.78;;;22.16;45.97
967;BME280;56108;48.730;9.304;2023-08-08T15:47:15;97529.69;;;22.14;46.75
967;BME280;56108;48.730;9.304;2023-08-08T15:49:25;97526.13;;;22.14;46.67